sensor_id;sensor_type;location;lat;lon;timestamp;P1;durP1;ratioP1;P2;durP2;ratioP2
19388;SDS011;9830;41.876;23.474;2022-09-03T00:02:34;2.73;;;1.80;;
19388;SDS011;9830;41.876;23.474;2022-09-03T00:05:40;1.70;;;1.60;;
19388;SDS011;9830;41.876;23.474;2022-09-03T00:10:58;2.03;;;0.83;;
19388;SDS011;9830;41.876;23.474;2022-09-03T00:14:11;1.37;;;1.37;;
19388;SDS011;9830;41.876;23.474;2022-09-03T00:16:47;1.60;;;1.50;;
19388;SDS011;9830;41.876;23.474;2022-09-03T00:19:17;2.37;;;1.60;;
19388;SDS011;9830;41.876;23.474;2022-09-03T00:21:53;0.83;;;0.83;;
19388;SDS011;9830;41.876;23.474;2022-09-03T00:24:24;1.83;;;1.73;;
19388;SDS011;9830;41.876;23.474;2022-09-03T00:26:54;3.37;;;1.47;;
19388;SDS011;9830;41.876;23.474;2022-09-03T00:29:34;1.80;;;1.40;;
19388;SDS011;9830;41.876;23.474;2022-09-03T00:32:16;0.50;;;0.50;;
19388;SDS011;9830;41.876;23.474;2022-09-03T00:34:51;1.63;;;1.20;;
19388;SDS011;9830;41.876;23.474;2022-09-03T00:37:22;0.70;;;0.60;;
19388;SDS011;9830;41.876;23.474;2022-09-03T00:39:48;1.77;;;1.43;;
19388;SDS011;9830;41.876;23.474;2022-09-03T00:42:20;9.40;;;1.67;;
19388;SDS011;9830;41.876;23.474;2022-09-03T00:50:57;2.93;;;1.87;;
19388;SDS011;9830;41.876;23.474;2022-09-03T00:53:34;1.17;;;1.17;;
19388;SDS011;9830;41.876;23.474;2022-09-03T00:58:54;1.27;;;1.23;;
19388;SDS011;9830;41.876;23.474;2022-09-03T01:10:17;0.87;;;0.87;;
19388;SDS011;9830;41.876;23.474;2022-09-03T01:15:41;2.73;;;2.33;;
19388;SDS011;9830;41.876;23.474;2022-09-03T01:18:30;1.50;;;1.40;;
19388;SDS011;9830;41.876;23.474;2022-09-03T01:35:46;2.90;;;1.90;;
19388;SDS011;9830;41.876;23.474;2022-09-03T01:38:32;1.77;;;1.67;;
19388;SDS011;9830;41.876;23.474;2022-09-03T01:46:41;2.80;;;2.50;;
19388;SDS011;9830;41.876;23.474;2022-09-03T01:51:45;2.50;;;2.37;;
19388;SDS011;9830;41.876;23.474;2022-09-03T01:59:44;3.63;;;2.87;;
19388;SDS011;9830;41.876;23.474;2022-09-03T02:02:17;3.07;;;2.87;;
19388;SDS011;9830;41.876;23.474;2022-09-03T02:04:57;4.33;;;2.87;;
19388;SDS011;9830;41.876;23.474;2022-09-03T02:07:31;2.20;;;2.07;;
19388;SDS011;9830;41.876;23.474;2022-09-03T02:10:02;3.60;;;2.90;;
19388;SDS011;9830;41.876;23.474;2022-09-03T02:12:31;4.90;;;3.80;;
19388;SDS011;9830;41.876;23.474;2022-09-03T02:15:00;2.93;;;2.73;;
19388;SDS011;9830;41.876;23.474;2022-09-03T02:17:30;3.13;;;2.83;;
19388;SDS011;9830;41.876;23.474;2022-09-03T02:19:57;4.23;;;3.60;;
19388;SDS011;9830;41.876;23.474;2022-09-03T02:22:31;9.43;;;2.53;;
19388;SDS011;9830;41.876;23.474;2022-09-03T02:24:58;7.37;;;2.87;;
19388;SDS011;9830;41.876;23.474;2022-09-03T02:27:24;2.13;;;1.93;;
19388;SDS011;9830;41.876;23.474;2022-09-03T02:29:50;2.93;;;2.63;;
19388;SDS011;9830;41.876;23.474;2022-09-03T02:32:16;6.47;;;2.17;;
19388;SDS011;9830;41.876;23.474;2022-09-03T02:34:41;2.50;;;2.23;;
19388;SDS011;9830;41.876;23.474;2022-09-03T02:37:14;2.00;;;1.90;;
19388;SDS011;9830;41.876;23.474;2022-09-03T02:39:43;1.73;;;1.53;;
19388;SDS011;9830;41.876;23.474;2022-09-03T02:42:10;4.77;;;2.90;;
19388;SDS011;9830;41.876;23.474;2022-09-03T02:44:40;9.80;;;3.57;;
19388;SDS011;9830;41.876;23.474;2022-09-03T02:47:10;2.23;;;2.13;;
19388;SDS011;9830;41.876;23.474;2022-09-03T02:49:36;3.23;;;2.20;;
19388;SDS011;9830;41.876;23.474;2022-09-03T02:52:03;4.63;;;2.77;;
19388;SDS011;9830;41.876;23.474;2022-09-03T02:54:33;2.77;;;2.57;;
19388;SDS011;9830;41.876;23.474;2022-09-03T02:57:04;4.80;;;2.93;;
19388;SDS011;9830;41.876;23.474;2022-09-03T02:59:31;22.00;;;2.80;;
19388;SDS011;9830;41.876;23.474;2022-09-03T03:01:56;3.00;;;2.80;;
19388;SDS011;9830;41.876;23.474;2022-09-03T03:04:22;2.63;;;2.47;;
19388;SDS011;9830;41.876;23.474;2022-09-03T03:06:48;4.13;;;3.10;;
19388;SDS011;9830;41.876;23.474;2022-09-03T03:09:16;9.13;;;5.10;;
19388;SDS011;9830;41.876;23.474;2022-09-03T03:11:42;13.97;;;5.17;;
19388;SDS011;9830;41.876;23.474;2022-09-03T03:14:08;5.13;;;4.73;;
19388;SDS011;9830;41.876;23.474;2022-09-03T03:16:34;9.40;;;5.13;;
19388;SDS011;9830;41.876;23.474;2022-09-03T03:19:00;4.20;;;3.90;;
19388;SDS011;9830;41.876;23.474;2022-09-03T03:21:25;4.27;;;1.53;;
19388;SDS011;9830;41.876;23.474;2022-09-03T03:23:51;5.10;;;3.00;;
19388;SDS011;9830;41.876;23.474;2022-09-03T03:26:18;2.73;;;1.67;;
19388;SDS011;9830;41.876;23.474;2022-09-03T03:28:45;1.87;;;1.77;;
19388;SDS011;9830;41.876;23.474;2022-09-03T03:31:16;2.00;;;1.90;;
19388;SDS011;9830;41.876;23.474;2022-09-03T03:33:49;2.73;;;2.20;;
19388;SDS011;9830;41.876;23.474;2022-09-03T03:36:20;1.87;;;1.77;;
19388;SDS011;9830;41.876;23.474;2022-09-03T03:38:47;2.27;;;2.07;;
19388;SDS011;9830;41.876;23.474;2022-09-03T03:41:17;2.13;;;2.03;;
19388;SDS011;9830;41.876;23.474;2022-09-03T03:43:46;4.00;;;2.57;;
19388;SDS011;9830;41.876;23.474;2022-09-03T03:46:12;7.07;;;2.73;;
19388;SDS011;9830;41.876;23.474;2022-09-03T03:48:39;3.27;;;2.57;;
19388;SDS011;9830;41.876;23.474;2022-09-03T03:51:06;2.50;;;2.37;;
19388;SDS011;9830;41.876;23.474;2022-09-03T03:53:33;2.63;;;2.43;;
19388;SDS011;9830;41.876;23.474;2022-09-03T03:56:01;9.93;;;3.00;;
19388;SDS011;9830;41.876;23.474;2022-09-03T03:58:28;2.63;;;2.40;;
19388;SDS011;9830;41.876;23.474;2022-09-03T04:01:02;2.43;;;2.33;;
19388;SDS011;9830;41.876;23.474;2022-09-03T04:03:36;2.20;;;2.10;;
19388;SDS011;9830;41.876;23.474;2022-09-03T04:06:02;3.13;;;2.93;;
19388;SDS011;9830;41.876;23.474;2022-09-03T04:08:29;2.13;;;2.03;;
19388;SDS011;9830;41.876;23.474;2022-09-03T04:10:58;4.30;;;2.47;;
19388;SDS011;9830;41.876;23.474;2022-09-03T04:13:31;3.37;;;3.17;;
19388;SDS011;9830;41.876;23.474;2022-09-03T04:16:02;5.23;;;2.47;;
19388;SDS011;9830;41.876;23.474;2022-09-03T04:18:30;1.80;;;1.70;;
19388;SDS011;9830;41.876;23.474;2022-09-03T04:21:04;2.90;;;2.70;;
19388;SDS011;9830;41.876;23.474;2022-09-03T04:23:32;2.70;;;2.10;;
19388;SDS011;9830;41.876;23.474;2022-09-03T04:26:00;5.50;;;3.33;;
19388;SDS011;9830;41.876;23.474;2022-09-03T04:28:26;3.37;;;3.07;;
19388;SDS011;9830;41.876;23.474;2022-09-03T04:30:52;3.97;;;2.10;;
19388;SDS011;9830;41.876;23.474;2022-09-03T04:33:18;1.03;;;1.03;;
19388;SDS011;9830;41.876;23.474;2022-09-03T04:35:44;3.33;;;2.23;;
19388;SDS011;9830;41.876;23.474;2022-09-03T04:38:10;2.23;;;2.13;;
19388;SDS011;9830;41.876;23.474;2022-09-03T04:40:35;2.40;;;2.17;;
19388;SDS011;9830;41.876;23.474;2022-09-03T04:43:01;5.43;;;2.63;;
19388;SDS011;9830;41.876;23.474;2022-09-03T04:45:27;2.47;;;2.37;;
19388;SDS011;9830;41.876;23.474;2022-09-03T04:48:00;2.50;;;2.37;;
19388;SDS011;9830;41.876;23.474;2022-09-03T04:50:27;2.77;;;2.57;;
19388;SDS011;9830;41.876;23.474;2022-09-03T04:52:54;4.87;;;2.63;;
19388;SDS011;9830;41.876;23.474;2022-09-03T04:55:24;1.23;;;1.23;;
19388;SDS011;9830;41.876;23.474;2022-09-03T04:57:50;1.60;;;1.50;;
19388;SDS011;9830;41.876;23.474;2022-09-03T05:00:16;2.70;;;2.60;;
19388;SDS011;9830;41.876;23.474;2022-09-03T05:02:45;2.57;;;2.37;;
19388;SDS011;9830;41.876;23.474;2022-09-03T05:05:12;6.20;;;2.67;;
19388;SDS011;9830;41.876;23.474;2022-09-03T05:07:38;1.97;;;1.87;;
19388;SDS011;9830;41.876;23.474;2022-09-03T05:10:05;2.70;;;2.40;;
19388;SDS011;9830;41.876;23.474;2022-09-03T05:12:32;1.57;;;1.47;;
19388;SDS011;9830;41.876;23.474;2022-09-03T05:14:59;2.30;;;2.20;;
19388;SDS011;9830;41.876;23.474;2022-09-03T05:17:25;1.80;;;1.70;;
19388;SDS011;9830;41.876;23.474;2022-09-03T05:19:51;1.03;;;1.03;;
19388;SDS011;9830;41.876;23.474;2022-09-03T05:22:17;1.43;;;1.43;;
19388;SDS011;9830;41.876;23.474;2022-09-03T05:24:46;3.70;;;2.10;;
19388;SDS011;9830;41.876;23.474;2022-09-03T05:27:13;1.67;;;1.27;;
19388;SDS011;9830;41.876;23.474;2022-09-03T05:29:41;1.80;;;1.70;;
19388;SDS011;9830;41.876;23.474;2022-09-03T05:32:08;44.20;;;2.47;;
19388;SDS011;9830;41.876;23.474;2022-09-03T05:34:34;1.43;;;1.43;;
19388;SDS011;9830;41.876;23.474;2022-09-03T05:37:00;2.27;;;2.07;;
19388;SDS011;9830;41.876;23.474;2022-09-03T05:39:26;1.77;;;1.67;;
19388;SDS011;9830;41.876;23.474;2022-09-03T05:41:51;1.37;;;1.30;;
19388;SDS011;9830;41.876;23.474;2022-09-03T05:44:17;5.93;;;4.37;;
19388;SDS011;9830;41.876;23.474;2022-09-03T05:46:45;2.23;;;2.10;;
19388;SDS011;9830;41.876;23.474;2022-09-03T05:49:11;4.03;;;3.07;;
19388;SDS011;9830;41.876;23.474;2022-09-03T05:51:37;3.70;;;3.40;;
19388;SDS011;9830;41.876;23.474;2022-09-03T05:54:06;4.23;;;3.83;;
19388;SDS011;9830;41.876;23.474;2022-09-03T05:56:33;3.53;;;3.23;;
19388;SDS011;9830;41.876;23.474;2022-09-03T05:59:01;23.83;;;5.47;;
19388;SDS011;9830;41.876;23.474;2022-09-03T06:01:31;2.80;;;2.60;;
19388;SDS011;9830;41.876;23.474;2022-09-03T06:04:09;3.80;;;3.50;;
19388;SDS011;9830;41.876;23.474;2022-09-03T06:06:38;4.87;;;4.17;;
19388;SDS011;9830;41.876;23.474;2022-09-03T06:09:06;4.73;;;4.20;;
19388;SDS011;9830;41.876;23.474;2022-09-03T06:11:37;3.47;;;3.17;;
19388;SDS011;9830;41.876;23.474;2022-09-03T06:14:05;3.90;;;3.50;;
19388;SDS011;9830;41.876;23.474;2022-09-03T06:16:33;5.13;;;2.40;;
19388;SDS011;9830;41.876;23.474;2022-09-03T06:19:02;2.03;;;1.93;;
19388;SDS011;9830;41.876;23.474;2022-09-03T06:21:31;2.37;;;2.17;;
19388;SDS011;9830;41.876;23.474;2022-09-03T06:23:57;2.77;;;2.47;;
19388;SDS011;9830;41.876;23.474;2022-09-03T06:26:23;3.97;;;1.00;;
19388;SDS011;9830;41.876;23.474;2022-09-03T06:28:49;5.47;;;2.87;;
19388;SDS011;9830;41.876;23.474;2022-09-03T06:31:19;2.23;;;2.13;;
19388;SDS011;9830;41.876;23.474;2022-09-03T06:33:45;3.77;;;2.03;;
19388;SDS011;9830;41.876;23.474;2022-09-03T06:36:13;4.67;;;1.83;;
19388;SDS011;9830;41.876;23.474;2022-09-03T06:38:41;7.67;;;3.17;;
19388;SDS011;9830;41.876;23.474;2022-09-03T06:41:09;2.90;;;2.23;;
19388;SDS011;9830;41.876;23.474;2022-09-03T06:43:37;1.43;;;1.33;;
19388;SDS011;9830;41.876;23.474;2022-09-03T06:46:14;1.97;;;1.87;;
19388;SDS011;9830;41.876;23.474;2022-09-03T06:48:42;1.57;;;1.47;;
19388;SDS011;9830;41.876;23.474;2022-09-03T06:51:12;1.20;;;1.17;;
19388;SDS011;9830;41.876;23.474;2022-09-03T06:53:53;2.33;;;2.13;;
19388;SDS011;9830;41.876;23.474;2022-09-03T06:56:23;2.30;;;2.17;;
19388;SDS011;9830;41.876;23.474;2022-09-03T06:59:03;4.10;;;2.63;;
19388;SDS011;9830;41.876;23.474;2022-09-03T07:01:31;2.85;;;2.63;;
19388;SDS011;9830;41.876;23.474;2022-09-03T07:03:58;2.10;;;2.00;;
19388;SDS011;9830;41.876;23.474;2022-09-03T07:06:27;6.28;;;2.05;;
19388;SDS011;9830;41.876;23.474;2022-09-03T07:08:54;2.17;;;2.08;;
19388;SDS011;9830;41.876;23.474;2022-09-03T07:11:24;3.15;;;2.22;;
19388;SDS011;9830;41.876;23.474;2022-09-03T07:13:51;2.92;;;2.17;;
19388;SDS011;9830;41.876;23.474;2022-09-03T07:16:20;2.78;;;2.58;;
19388;SDS011;9830;41.876;23.474;2022-09-03T07:18:48;1.65;;;1.55;;
19388;SDS011;9830;41.876;23.474;2022-09-03T07:21:18;1.48;;;1.48;;
19388;SDS011;9830;41.876;23.474;2022-09-03T07:23:46;2.28;;;2.13;;
19388;SDS011;9830;41.876;23.474;2022-09-03T07:26:16;2.25;;;2.08;;
19388;SDS011;9830;41.876;23.474;2022-09-03T07:28:50;2.60;;;2.40;;
19388;SDS011;9830;41.876;23.474;2022-09-03T07:31:23;4.97;;;2.10;;
19388;SDS011;9830;41.876;23.474;2022-09-03T07:33:58;2.08;;;1.98;;
19388;SDS011;9830;41.876;23.474;2022-09-03T07:36:28;2.20;;;2.00;;
19388;SDS011;9830;41.876;23.474;2022-09-03T07:38:54;1.90;;;1.70;;
19388;SDS011;9830;41.876;23.474;2022-09-03T07:41:21;2.90;;;2.35;;
19388;SDS011;9830;41.876;23.474;2022-09-03T07:43:49;1.85;;;1.75;;
19388;SDS011;9830;41.876;23.474;2022-09-03T07:46:15;1.77;;;1.70;;
19388;SDS011;9830;41.876;23.474;2022-09-03T07:48:52;2.30;;;2.17;;
19388;SDS011;9830;41.876;23.474;2022-09-03T07:51:21;2.28;;;2.17;;
19388;SDS011;9830;41.876;23.474;2022-09-03T07:54:01;4.90;;;2.65;;
19388;SDS011;9830;41.876;23.474;2022-09-03T07:56:29;1.77;;;1.67;;
19388;SDS011;9830;41.876;23.474;2022-09-03T07:58:59;2.08;;;1.88;;
19388;SDS011;9830;41.876;23.474;2022-09-03T08:01:26;7.18;;;3.38;;
19388;SDS011;9830;41.876;23.474;2022-09-03T08:03:53;3.65;;;3.33;;
19388;SDS011;9830;41.876;23.474;2022-09-03T08:06:20;4.10;;;1.65;;
19388;SDS011;9830;41.876;23.474;2022-09-03T08:08:48;6.03;;;2.72;;
19388;SDS011;9830;41.876;23.474;2022-09-03T08:11:21;2.30;;;2.20;;
19388;SDS011;9830;41.876;23.474;2022-09-03T08:13:47;2.47;;;2.28;;
19388;SDS011;9830;41.876;23.474;2022-09-03T08:16:18;2.90;;;2.10;;
19388;SDS011;9830;41.876;23.474;2022-09-03T08:18:45;2.55;;;2.35;;
19388;SDS011;9830;41.876;23.474;2022-09-03T08:21:15;1.23;;;1.23;;
19388;SDS011;9830;41.876;23.474;2022-09-03T08:23:44;1.80;;;1.70;;
19388;SDS011;9830;41.876;23.474;2022-09-03T08:26:11;2.53;;;2.33;;
19388;SDS011;9830;41.876;23.474;2022-09-03T08:28:38;2.35;;;2.20;;
19388;SDS011;9830;41.876;23.474;2022-09-03T08:31:05;3.63;;;2.25;;
19388;SDS011;9830;41.876;23.474;2022-09-03T08:33:35;1.80;;;1.70;;
19388;SDS011;9830;41.876;23.474;2022-09-03T08:36:06;1.88;;;1.77;;
19388;SDS011;9830;41.876;23.474;2022-09-03T08:38:43;1.55;;;1.33;;
19388;SDS011;9830;41.876;23.474;2022-09-03T08:46:16;2.35;;;2.15;;
19388;SDS011;9830;41.876;23.474;2022-09-03T08:48:42;1.90;;;1.80;;
19388;SDS011;9830;41.876;23.474;2022-09-03T08:51:07;1.50;;;1.50;;
19388;SDS011;9830;41.876;23.474;2022-09-03T08:56:11;3.60;;;1.80;;
19388;SDS011;9830;41.876;23.474;2022-09-03T08:58:43;2.47;;;2.38;;
19388;SDS011;9830;41.876;23.474;2022-09-03T09:03:46;2.75;;;1.92;;
19388;SDS011;9830;41.876;23.474;2022-09-03T09:14:20;2.47;;;1.52;;
19388;SDS011;9830;41.876;23.474;2022-09-03T09:23:00;2.75;;;1.95;;
19388;SDS011;9830;41.876;23.474;2022-09-03T09:25:30;2.03;;;1.92;;
19388;SDS011;9830;41.876;23.474;2022-09-03T09:28:22;1.83;;;1.73;;
19388;SDS011;9830;41.876;23.474;2022-09-03T09:30:50;2.08;;;1.88;;
19388;SDS011;9830;41.876;23.474;2022-09-03T09:33:18;4.45;;;3.25;;
19388;SDS011;9830;41.876;23.474;2022-09-03T09:35:45;7.90;;;2.60;;
19388;SDS011;9830;41.876;23.474;2022-09-03T09:38:11;1.80;;;1.70;;
19388;SDS011;9830;41.876;23.474;2022-09-03T09:40:39;3.08;;;1.77;;
19388;SDS011;9830;41.876;23.474;2022-09-03T09:45:37;4.78;;;2.30;;
19388;SDS011;9830;41.876;23.474;2022-09-03T09:48:09;2.15;;;1.77;;
19388;SDS011;9830;41.876;23.474;2022-09-03T09:53:44;2.45;;;2.25;;
19388;SDS011;9830;41.876;23.474;2022-09-03T09:56:20;1.40;;;1.30;;
19388;SDS011;9830;41.876;23.474;2022-09-03T09:58:47;2.00;;;1.88;;
19388;SDS011;9830;41.876;23.474;2022-09-03T10:01:22;4.65;;;2.20;;
19388;SDS011;9830;41.876;23.474;2022-09-03T10:06:30;1.63;;;1.52;;
19388;SDS011;9830;41.876;23.474;2022-09-03T10:09:19;3.80;;;1.88;;
19388;SDS011;9830;41.876;23.474;2022-09-03T10:14:30;1.67;;;1.48;;
19388;SDS011;9830;41.876;23.474;2022-09-03T10:20:10;1.73;;;1.63;;
19388;SDS011;9830;41.876;23.474;2022-09-03T10:22:56;1.65;;;1.58;;
19388;SDS011;9830;41.876;23.474;2022-09-03T10:25:26;1.83;;;1.77;;
19388;SDS011;9830;41.876;23.474;2022-09-03T10:27:59;3.63;;;2.05;;
19388;SDS011;9830;41.876;23.474;2022-09-03T10:30:26;2.03;;;1.92;;
19388;SDS011;9830;41.876;23.474;2022-09-03T10:35:33;1.65;;;1.52;;
19388;SDS011;9830;41.876;23.474;2022-09-03T10:40:50;2.30;;;2.13;;
19388;SDS011;9830;41.876;23.474;2022-09-03T10:43:30;1.40;;;1.30;;
19388;SDS011;9830;41.876;23.474;2022-09-03T10:48:49;0.65;;;0.65;;
19388;SDS011;9830;41.876;23.474;2022-09-03T10:56:31;1.23;;;1.20;;
19388;SDS011;9830;41.876;23.474;2022-09-03T11:06:58;1.15;;;1.15;;
19388;SDS011;9830;41.876;23.474;2022-09-03T11:09:36;1.33;;;1.27;;
19388;SDS011;9830;41.876;23.474;2022-09-03T11:14:49;1.30;;;1.17;;
19388;SDS011;9830;41.876;23.474;2022-09-03T11:17:24;0.75;;;0.75;;
19388;SDS011;9830;41.876;23.474;2022-09-03T11:22:49;0.90;;;0.90;;
19388;SDS011;9830;41.876;23.474;2022-09-03T11:25:19;1.13;;;1.02;;
19388;SDS011;9830;41.876;23.474;2022-09-03T11:33:11;1.50;;;0.80;;
19388;SDS011;9830;41.876;23.474;2022-09-03T11:35:38;0.70;;;0.70;;
19388;SDS011;9830;41.876;23.474;2022-09-03T11:38:18;2.25;;;1.58;;
19388;SDS011;9830;41.876;23.474;2022-09-03T11:48:39;1.23;;;1.13;;
19388;SDS011;9830;41.876;23.474;2022-09-03T11:51:43;1.23;;;0.98;;
19388;SDS011;9830;41.876;23.474;2022-09-03T11:54:22;1.00;;;1.00;;
19388;SDS011;9830;41.876;23.474;2022-09-03T11:56:50;3.78;;;1.40;;
19388;SDS011;9830;41.876;23.474;2022-09-03T11:59:30;1.70;;;1.60;;
19388;SDS011;9830;41.876;23.474;2022-09-03T12:02:40;0.43;;;0.43;;
19388;SDS011;9830;41.876;23.474;2022-09-03T12:05:13;0.80;;;0.80;;
19388;SDS011;9830;41.876;23.474;2022-09-03T12:18:30;0.32;;;0.32;;
19388;SDS011;9830;41.876;23.474;2022-09-03T12:23:32;0.28;;;0.28;;
19388;SDS011;9830;41.876;23.474;2022-09-03T12:26:01;0.80;;;0.80;;
19388;SDS011;9830;41.876;23.474;2022-09-03T12:28:30;1.15;;;0.80;;
19388;SDS011;9830;41.876;23.474;2022-09-03T12:31:13;1.00;;;0.98;;
19388;SDS011;9830;41.876;23.474;2022-09-03T12:33:52;1.02;;;1.02;;
19388;SDS011;9830;41.876;23.474;2022-09-03T12:36:25;0.80;;;0.80;;
19388;SDS011;9830;41.876;23.474;2022-09-03T12:39:09;0.75;;;0.75;;
19388;SDS011;9830;41.876;23.474;2022-09-03T12:42:00;2.33;;;0.77;;
19388;SDS011;9830;41.876;23.474;2022-09-03T12:47:21;0.43;;;0.43;;
19388;SDS011;9830;41.876;23.474;2022-09-03T12:49:49;0.20;;;0.20;;
19388;SDS011;9830;41.876;23.474;2022-09-03T12:52:23;1.20;;;1.10;;
19388;SDS011;9830;41.876;23.474;2022-09-03T12:57:47;0.45;;;0.45;;
19388;SDS011;9830;41.876;23.474;2022-09-03T13:00:20;0.20;;;0.20;;
19388;SDS011;9830;41.876;23.474;2022-09-03T13:02:49;0.75;;;0.75;;
19388;SDS011;9830;41.876;23.474;2022-09-03T13:05:34;0.30;;;0.30;;
19388;SDS011;9830;41.876;23.474;2022-09-03T13:08:09;1.38;;;0.63;;
19388;SDS011;9830;41.876;23.474;2022-09-03T13:10:49;0.30;;;0.30;;
19388;SDS011;9830;41.876;23.474;2022-09-03T13:13:26;0.20;;;0.20;;
19388;SDS011;9830;41.876;23.474;2022-09-03T13:16:09;0.63;;;0.40;;
19388;SDS011;9830;41.876;23.474;2022-09-03T13:19:02;0.40;;;0.28;;
19388;SDS011;9830;41.876;23.474;2022-09-03T13:25:12;0.98;;;0.65;;
19388;SDS011;9830;41.876;23.474;2022-09-03T13:27:27;0.13;;;0.13;;
19388;SDS011;9830;41.876;23.474;2022-09-03T13:30:14;0.25;;;0.25;;
19388;SDS011;9830;41.876;23.474;2022-09-03T13:38:21;1.30;;;0.52;;
19388;SDS011;9830;41.876;23.474;2022-09-03T13:46:56;0.10;;;0.10;;
19388;SDS011;9830;41.876;23.474;2022-09-03T13:55:08;1.30;;;1.20;;
19388;SDS011;9830;41.876;23.474;2022-09-03T13:57:48;0.15;;;0.15;;
19388;SDS011;9830;41.876;23.474;2022-09-03T14:01:03;0.47;;;0.47;;
19388;SDS011;9830;41.876;23.474;2022-09-03T14:06:23;0.20;;;0.20;;
19388;SDS011;9830;41.876;23.474;2022-09-03T14:17:14;0.28;;;0.28;;
19388;SDS011;9830;41.876;23.474;2022-09-03T14:25:27;0.40;;;0.40;;
19388;SDS011;9830;41.876;23.474;2022-09-03T14:27:53;0.10;;;0.10;;
19388;SDS011;9830;41.876;23.474;2022-09-03T14:30:30;0.95;;;0.88;;
19388;SDS011;9830;41.876;23.474;2022-09-03T14:33:15;4.15;;;1.27;;
19388;SDS011;9830;41.876;23.474;2022-09-03T14:36:01;0.40;;;0.40;;
19388;SDS011;9830;41.876;23.474;2022-09-03T14:38:56;0.28;;;0.28;;
19388;SDS011;9830;41.876;23.474;2022-09-03T14:47:29;0.83;;;0.83;;
19388;SDS011;9830;41.876;23.474;2022-09-03T14:52:58;0.20;;;0.20;;
19388;SDS011;9830;41.876;23.474;2022-09-03T14:58:24;0.77;;;0.77;;
19388;SDS011;9830;41.876;23.474;2022-09-03T15:11:54;0.90;;;0.60;;
19388;SDS011;9830;41.876;23.474;2022-09-03T15:14:38;0.20;;;0.20;;
19388;SDS011;9830;41.876;23.474;2022-09-03T15:30:38;3.40;;;1.33;;
19388;SDS011;9830;41.876;23.474;2022-09-03T15:33:11;0.27;;;0.27;;
19388;SDS011;9830;41.876;23.474;2022-09-03T15:44:15;0.43;;;0.43;;
19388;SDS011;9830;41.876;23.474;2022-09-03T15:51:53;4.07;;;1.40;;
19388;SDS011;9830;41.876;23.474;2022-09-03T15:54:57;0.30;;;0.30;;
19388;SDS011;9830;41.876;23.474;2022-09-03T15:58:10;0.00;;;0.00;;
19388;SDS011;9830;41.876;23.474;2022-09-03T16:01:03;0.50;;;0.50;;
19388;SDS011;9830;41.876;23.474;2022-09-03T16:15:02;1.80;;;0.57;;
19388;SDS011;9830;41.876;23.474;2022-09-03T16:20:07;0.83;;;0.47;;
19388;SDS011;9830;41.876;23.474;2022-09-03T16:22:47;0.63;;;0.63;;
19388;SDS011;9830;41.876;23.474;2022-09-03T16:25:33;0.40;;;0.40;;
19388;SDS011;9830;41.876;23.474;2022-09-03T16:28:13;0.43;;;0.43;;
19388;SDS011;9830;41.876;23.474;2022-09-03T16:34:01;0.10;;;0.10;;
19388;SDS011;9830;41.876;23.474;2022-09-03T16:39:23;0.47;;;0.47;;
19388;SDS011;9830;41.876;23.474;2022-09-03T16:42:03;0.30;;;0.30;;
19388;SDS011;9830;41.876;23.474;2022-09-03T16:53:14;1.07;;;1.00;;
19388;SDS011;9830;41.876;23.474;2022-09-03T16:58:46;0.30;;;0.30;;
19388;SDS011;9830;41.876;23.474;2022-09-03T17:17:52;0.00;;;0.00;;
19388;SDS011;9830;41.876;23.474;2022-09-03T17:26:27;0.17;;;0.17;;
19388;SDS011;9830;41.876;23.474;2022-09-03T17:31:59;0.20;;;0.20;;
19388;SDS011;9830;41.876;23.474;2022-09-03T17:45:42;5.60;;;0.93;;
19388;SDS011;9830;41.876;23.474;2022-09-03T17:50:55;3.60;;;1.37;;
19388;SDS011;9830;41.876;23.474;2022-09-03T17:56:34;1.13;;;1.03;;
19388;SDS011;9830;41.876;23.474;2022-09-03T17:59:33;1.33;;;1.23;;
19388;SDS011;9830;41.876;23.474;2022-09-03T18:02:32;2.40;;;0.67;;
19388;SDS011;9830;41.876;23.474;2022-09-03T18:11:29;0.70;;;0.70;;
19388;SDS011;9830;41.876;23.474;2022-09-03T18:14:16;0.80;;;0.80;;
19388;SDS011;9830;41.876;23.474;2022-09-03T18:20:10;0.73;;;0.73;;
19388;SDS011;9830;41.876;23.474;2022-09-03T18:25:49;1.20;;;1.10;;
19388;SDS011;9830;41.876;23.474;2022-09-03T18:28:53;0.57;;;0.53;;
19388;SDS011;9830;41.876;23.474;2022-09-03T18:31:43;0.33;;;0.33;;
19388;SDS011;9830;41.876;23.474;2022-09-03T18:34:29;0.77;;;0.77;;
19388;SDS011;9830;41.876;23.474;2022-09-03T18:37:17;0.23;;;0.23;;
19388;SDS011;9830;41.876;23.474;2022-09-03T18:40:05;0.43;;;0.43;;
19388;SDS011;9830;41.876;23.474;2022-09-03T18:45:57;0.77;;;0.60;;
19388;SDS011;9830;41.876;23.474;2022-09-03T18:54:45;1.47;;;1.37;;
19388;SDS011;9830;41.876;23.474;2022-09-03T19:04:04;0.77;;;0.53;;
19388;SDS011;9830;41.876;23.474;2022-09-03T19:07:20;2.53;;;1.03;;
19388;SDS011;9830;41.876;23.474;2022-09-03T19:10:20;0.67;;;0.67;;
19388;SDS011;9830;41.876;23.474;2022-09-03T19:22:58;0.80;;;0.80;;
19388;SDS011;9830;41.876;23.474;2022-09-03T19:25:25;0.83;;;0.83;;
19388;SDS011;9830;41.876;23.474;2022-09-03T19:28:17;1.80;;;1.00;;
19388;SDS011;9830;41.876;23.474;2022-09-03T19:34:02;4.53;;;1.57;;
19388;SDS011;9830;41.876;23.474;2022-09-03T19:54:41;0.70;;;0.70;;
19388;SDS011;9830;41.876;23.474;2022-09-03T19:57:25;1.20;;;0.97;;
19388;SDS011;9830;41.876;23.474;2022-09-03T20:00:13;0.73;;;0.70;;
19388;SDS011;9830;41.876;23.474;2022-09-03T20:02:57;0.57;;;0.57;;
19388;SDS011;9830;41.876;23.474;2022-09-03T20:05:42;1.30;;;1.30;;
19388;SDS011;9830;41.876;23.474;2022-09-03T20:08:28;2.80;;;1.50;;
19388;SDS011;9830;41.876;23.474;2022-09-03T20:11:18;1.07;;;0.93;;
19388;SDS011;9830;41.876;23.474;2022-09-03T20:13:46;0.93;;;0.73;;
19388;SDS011;9830;41.876;23.474;2022-09-03T20:30:19;4.10;;;1.90;;
19388;SDS011;9830;41.876;23.474;2022-09-03T20:49:04;3.50;;;1.80;;
19388;SDS011;9830;41.876;23.474;2022-09-03T21:03:06;4.00;;;1.63;;
19388;SDS011;9830;41.876;23.474;2022-09-03T21:05:39;0.77;;;0.77;;
19388;SDS011;9830;41.876;23.474;2022-09-03T21:10:55;1.67;;;1.57;;
19388;SDS011;9830;41.876;23.474;2022-09-03T21:21:50;0.83;;;0.83;;
19388;SDS011;9830;41.876;23.474;2022-09-03T21:24:34;1.20;;;1.10;;
19388;SDS011;9830;41.876;23.474;2022-09-03T21:27:12;0.50;;;0.50;;
19388;SDS011;9830;41.876;23.474;2022-09-03T21:29:47;2.33;;;0.87;;
19388;SDS011;9830;41.876;23.474;2022-09-03T21:32:29;0.40;;;0.40;;
19388;SDS011;9830;41.876;23.474;2022-09-03T21:35:00;0.67;;;0.67;;
19388;SDS011;9830;41.876;23.474;2022-09-03T21:37:30;1.53;;;1.43;;
19388;SDS011;9830;41.876;23.474;2022-09-03T21:40:00;2.93;;;1.50;;
19388;SDS011;9830;41.876;23.474;2022-09-03T21:48:05;0.80;;;0.80;;
19388;SDS011;9830;41.876;23.474;2022-09-03T21:50:46;0.50;;;0.50;;
19388;SDS011;9830;41.876;23.474;2022-09-03T21:58:52;0.70;;;0.70;;
19388;SDS011;9830;41.876;23.474;2022-09-03T22:01:31;0.70;;;0.70;;
19388;SDS011;9830;41.876;23.474;2022-09-03T22:04:25;1.17;;;1.10;;
19388;SDS011;9830;41.876;23.474;2022-09-03T22:12:39;0.67;;;0.67;;
19388;SDS011;9830;41.876;23.474;2022-09-03T22:15:07;0.93;;;0.93;;
19388;SDS011;9830;41.876;23.474;2022-09-03T22:17:43;0.93;;;0.87;;
19388;SDS011;9830;41.876;23.474;2022-09-03T22:20:23;1.07;;;1.07;;
19388;SDS011;9830;41.876;23.474;2022-09-03T22:22:52;0.47;;;0.47;;
19388;SDS011;9830;41.876;23.474;2022-09-03T22:25:33;0.87;;;0.80;;
19388;SDS011;9830;41.876;23.474;2022-09-03T22:28:14;2.57;;;1.60;;
19388;SDS011;9830;41.876;23.474;2022-09-03T22:30:55;2.63;;;1.87;;
19388;SDS011;9830;41.876;23.474;2022-09-03T22:41:45;0.47;;;0.30;;
19388;SDS011;9830;41.876;23.474;2022-09-03T22:49:47;1.33;;;1.17;;
19388;SDS011;9830;41.876;23.474;2022-09-03T22:55:22;0.90;;;0.90;;
19388;SDS011;9830;41.876;23.474;2022-09-03T22:58:04;1.50;;;0.87;;
19388;SDS011;9830;41.876;23.474;2022-09-03T23:00:48;0.30;;;0.30;;
19388;SDS011;9830;41.876;23.474;2022-09-03T23:03:26;2.10;;;1.40;;